createdAt,value
2022-08-25T00:00:22.918Z,21.90
2022-08-25T00:03:06.591Z,21.80
2022-08-25T00:05:36.066Z,21.80
2022-08-25T00:08:06.532Z,21.80
2022-08-25T00:10:38.041Z,21.80
2022-08-25T00:13:07.536Z,21.70
2022-08-25T00:15:36.081Z,21.70
2022-08-25T00:18:05.668Z,21.70
2022-08-25T00:20:49.057Z,21.70
2022-08-25T00:23:18.364Z,21.70
2022-08-25T00:25:47.724Z,21.60
2022-08-25T00:28:16.926Z,21.60
2022-08-25T00:30:45.772Z,21.60
2022-08-25T00:33:14.626Z,21.60
2022-08-25T00:35:43.080Z,21.60
2022-08-25T00:38:11.973Z,21.60
2022-08-25T00:40:40.888Z,21.60
2022-08-25T00:43:08.940Z,21.50
2022-08-25T00:45:38.100Z,21.50
2022-08-25T00:48:06.949Z,21.50
2022-08-25T00:50:35.549Z,21.50
2022-08-25T00:53:05.903Z,21.50
2022-08-25T00:55:40.270Z,21.50
2022-08-25T00:58:21.125Z,21.40
2022-08-25T01:00:52.347Z,21.40
2022-08-25T01:03:25.264Z,21.40
2022-08-25T01:06:03.711Z,21.40
2022-08-25T01:08:35.537Z,21.40
2022-08-25T01:11:06.916Z,21.40
2022-08-25T01:13:41.064Z,21.30
2022-08-25T01:16:09.649Z,21.30
2022-08-25T01:18:56.698Z,21.30
2022-08-25T01:21:27.201Z,21.30
2022-08-25T01:23:58.448Z,21.30
2022-08-25T01:26:31.103Z,21.30
2022-08-25T01:29:20.286Z,21.30
2022-08-25T01:31:58.275Z,21.30
2022-08-25T01:34:29.030Z,21.30
2022-08-25T01:37:00.480Z,21.20
2022-08-25T01:39:31.687Z,21.20
2022-08-25T01:42:28.268Z,21.20
2022-08-25T01:44:57.536Z,21.20
2022-08-25T01:47:25.806Z,21.20
2022-08-25T01:49:54.210Z,21.20
2022-08-25T01:52:46.882Z,21.30
2022-08-25T01:55:14.904Z,21.30
2022-08-25T01:57:43.893Z,21.30
2022-08-25T02:00:14.412Z,21.30
2022-08-25T02:02:42.937Z,21.30
2022-08-25T02:05:14.254Z,21.30
2022-08-25T02:07:44.751Z,21.30
2022-08-25T02:10:13.788Z,21.40
2022-08-25T02:12:41.636Z,21.40
2022-08-25T02:15:10.320Z,21.40
2022-08-25T02:17:38.404Z,21.40
2022-08-25T02:20:09.582Z,21.40
2022-08-25T02:22:37.890Z,21.40
2022-08-25T02:25:07.782Z,21.40
2022-08-25T02:27:35.682Z,21.40
2022-08-25T02:30:05.814Z,21.40
2022-08-25T02:32:34.503Z,21.40
2022-08-25T02:35:02.452Z,21.30
2022-08-25T02:37:30.788Z,21.30
2022-08-25T02:40:00.184Z,21.30
2022-08-25T02:42:29.040Z,21.30
2022-08-25T02:44:57.851Z,21.30
2022-08-25T02:47:26.797Z,21.30
2022-08-25T02:49:55.669Z,21.30
2022-08-25T02:52:23.475Z,21.30
2022-08-25T02:54:51.573Z,21.30
2022-08-25T02:57:19.425Z,21.30
2022-08-25T02:59:48.552Z,21.30
2022-08-25T03:02:16.789Z,21.30
2022-08-25T03:04:45.493Z,21.30
2022-08-25T03:07:13.947Z,21.30
2022-08-25T03:09:44.315Z,21.30
2022-08-25T03:12:12.610Z,21.30
2022-08-25T03:14:41.100Z,21.30
2022-08-25T03:17:11.468Z,21.20
2022-08-25T03:19:44.405Z,21.20
2022-08-25T03:22:12.781Z,21.30
2022-08-25T03:24:40.635Z,21.20
2022-08-25T03:27:08.835Z,21.30
2022-08-25T03:29:38.868Z,21.30
2022-08-25T03:32:07.741Z,21.30
2022-08-25T03:34:37.976Z,21.30
2022-08-25T03:37:08.630Z,21.30
2022-08-25T03:39:36.942Z,21.30
2022-08-25T03:42:05.198Z,21.30
2022-08-25T03:44:33.636Z,21.30
2022-08-25T03:47:01.428Z,21.30
2022-08-25T03:49:29.481Z,21.30
2022-08-25T03:51:58.654Z,21.30
2022-08-25T03:54:26.610Z,21.30
2022-08-25T03:56:58.055Z,21.30
2022-08-25T03:59:27.200Z,21.30
2022-08-25T04:01:55.618Z,21.30
2022-08-25T04:04:23.700Z,21.30
2022-08-25T04:06:53.022Z,21.30
2022-08-25T04:09:21.777Z,21.30
2022-08-25T04:11:51.935Z,21.30
2022-08-25T04:14:22.303Z,21.30
2022-08-25T04:16:51.765Z,21.30
2022-08-25T04:19:20.632Z,21.20
2022-08-25T04:21:49.607Z,21.20
2022-08-25T04:24:17.481Z,21.20
2022-08-25T04:26:48.028Z,21.10
2022-08-25T04:29:23.633Z,21.10
2022-08-25T04:31:53.252Z,21.10
2022-08-25T04:34:30.318Z,21.10
2022-08-25T04:37:02.316Z,21.00
2022-08-25T04:39:31.595Z,21.00
2022-08-25T04:42:01.218Z,21.00
2022-08-25T04:44:30.591Z,20.90
2022-08-25T04:47:00.171Z,20.90
2022-08-25T04:49:28.795Z,20.90
2022-08-25T04:51:57.659Z,20.90
2022-08-25T04:54:25.956Z,20.90
2022-08-25T04:56:58.691Z,20.90
2022-08-25T04:59:30.621Z,21.00
2022-08-25T05:02:02.648Z,20.90
2022-08-25T05:04:33.248Z,20.90
2022-08-25T05:07:02.412Z,20.90
2022-08-25T05:09:32.325Z,20.90
2022-08-25T05:12:02.908Z,20.80
2022-08-25T05:14:32.512Z,20.80
2022-08-25T05:17:01.886Z,20.70
2022-08-25T05:19:31.098Z,20.60
2022-08-25T05:21:58.848Z,20.60
2022-08-25T05:24:28.212Z,20.60
2022-08-25T05:26:57.472Z,20.60
2022-08-25T05:29:27.019Z,20.60
2022-08-25T05:31:54.933Z,20.60
2022-08-25T05:34:23.381Z,20.50
2022-08-25T05:36:51.617Z,20.50
2022-08-25T05:39:19.416Z,20.50
2022-08-25T05:41:47.457Z,20.50
2022-08-25T05:44:19.129Z,20.50
2022-08-25T05:46:49.506Z,20.50
2022-08-25T05:49:17.885Z,20.50
2022-08-25T05:51:46.196Z,20.50
2022-08-25T05:54:14.105Z,20.50
2022-08-25T05:56:41.927Z,20.50
2022-08-25T05:59:09.900Z,20.50
2022-08-25T06:01:56.849Z,20.50
2022-08-25T06:04:25.587Z,20.50
2022-08-25T06:06:55.680Z,20.40
2022-08-25T06:09:24.312Z,20.40
2022-08-25T06:11:55.187Z,20.30
2022-08-25T06:14:25.505Z,20.30
2022-08-25T06:16:53.546Z,20.30
2022-08-25T06:19:23.616Z,20.20
2022-08-25T06:21:58.517Z,20.10
2022-08-25T06:24:27.961Z,20.20
2022-08-25T06:26:56.766Z,20.20
2022-08-25T06:29:25.861Z,20.20
2022-08-25T06:31:53.856Z,20.10
2022-08-25T06:34:24.206Z,20.10
2022-08-25T06:36:53.257Z,20.10
2022-08-25T06:39:22.212Z,20.20
2022-08-25T06:41:56.520Z,20.20
2022-08-25T06:44:27.772Z,20.20
2022-08-25T06:46:56.304Z,20.20
2022-08-25T06:49:28.287Z,20.20
2022-08-25T06:51:58.211Z,20.20
2022-08-25T06:54:26.445Z,20.20
2022-08-25T06:56:54.251Z,20.20
2022-08-25T06:59:23.522Z,20.20
2022-08-25T07:01:52.868Z,20.20
2022-08-25T07:04:21.102Z,20.20
2022-08-25T07:06:49.124Z,20.20
2022-08-25T07:09:17.036Z,20.20
2022-08-25T07:11:45.676Z,20.20
2022-08-25T07:14:16.843Z,20.10
2022-08-25T07:16:49.389Z,20.10
2022-08-25T07:19:21.119Z,20.10
2022-08-25T07:21:52.704Z,20.10
2022-08-25T07:24:22.067Z,20.10
2022-08-25T07:26:50.937Z,20.10
2022-08-25T07:29:31.681Z,20.10
2022-08-25T07:32:02.655Z,20.00
2022-08-25T07:34:52.798Z,20.00
2022-08-25T07:40:16.403Z,20.10
2022-08-25T07:42:46.840Z,20.10
2022-08-25T07:45:20.464Z,20.10
2022-08-25T07:47:51.676Z,20.10
2022-08-25T07:50:21.152Z,20.10
2022-08-25T07:52:52.078Z,20.10
2022-08-25T07:55:25.313Z,20.10
2022-08-25T07:57:57.147Z,20.20
2022-08-25T08:00:32.182Z,20.10
2022-08-25T08:03:03.878Z,20.10
2022-08-25T08:05:32.792Z,20.10
2022-08-25T08:08:02.610Z,20.10
2022-08-25T08:10:54.018Z,20.10
2022-08-25T08:13:20.942Z,20.20
2022-08-25T08:15:49.129Z,20.10
2022-08-25T08:18:18.479Z,20.10
2022-08-25T08:20:48.684Z,20.10
2022-08-25T08:23:18.541Z,20.10
2022-08-25T08:25:49.213Z,20.10
2022-08-25T08:28:17.692Z,20.20
2022-08-25T08:30:53.191Z,20.20
2022-08-25T08:33:24.301Z,20.20
2022-08-25T08:36:05.166Z,20.20
2022-08-25T08:38:34.983Z,20.30
2022-08-25T08:42:13.145Z,20.30
2022-08-25T08:44:47.203Z,20.30
2022-08-25T08:47:22.514Z,20.40
2022-08-25T08:50:03.795Z,20.40
2022-08-25T08:52:44.906Z,20.40
2022-08-25T08:55:39.232Z,20.40
2022-08-25T08:58:42.500Z,20.40
2022-08-25T09:01:29.444Z,20.40
2022-08-25T09:04:09.809Z,20.40
2022-08-25T09:06:44.669Z,20.40
2022-08-25T09:09:20.135Z,20.40
2022-08-25T09:12:17.208Z,20.40
2022-08-25T09:15:14.811Z,20.40
2022-08-25T09:18:13.672Z,20.40
2022-08-25T09:21:23.359Z,20.40
2022-08-25T09:24:13.050Z,20.40
2022-08-25T09:27:02.532Z,20.40
2022-08-25T09:30:01.024Z,20.40
2022-08-25T09:32:38.644Z,20.40
2022-08-25T09:35:26.263Z,20.40
2022-08-25T09:38:01.517Z,20.40
2022-08-25T09:40:34.828Z,20.40
2022-08-25T09:43:05.795Z,20.40
2022-08-25T09:45:36.699Z,20.40
2022-08-25T09:48:40.672Z,20.40
2022-08-25T09:51:18.190Z,20.40
2022-08-25T09:53:54.794Z,20.40
2022-08-25T09:56:33.163Z,20.40
2022-08-25T09:59:35.920Z,20.40
2022-08-25T10:02:21.425Z,20.40
2022-08-25T10:04:52.374Z,20.50
2022-08-25T10:07:28.729Z,20.50
2022-08-25T10:10:00.471Z,20.60
2022-08-25T10:12:42.558Z,20.60
2022-08-25T10:15:29.758Z,20.60
2022-08-25T10:18:27.126Z,20.60
2022-08-25T10:21:03.351Z,20.60
2022-08-25T10:23:34.717Z,20.70
2022-08-25T10:26:09.694Z,20.70
2022-08-25T10:28:37.685Z,20.70
2022-08-25T10:31:38.062Z,20.70
2022-08-25T10:34:46.361Z,20.60
2022-08-25T10:37:35.205Z,20.60
2022-08-25T10:40:06.305Z,20.60
2022-08-25T10:42:42.708Z,20.60
2022-08-25T10:45:43.746Z,20.60
2022-08-25T10:48:29.811Z,20.60
2022-08-25T10:51:32.119Z,20.60
2022-08-25T10:54:20.333Z,20.60
2022-08-25T10:57:13.578Z,20.70
2022-08-25T10:59:53.798Z,20.80
2022-08-25T11:02:54.353Z,20.80
2022-08-25T11:05:31.013Z,20.80
2022-08-25T11:08:39.228Z,20.80
2022-08-25T11:11:21.751Z,20.80
2022-08-25T11:14:05.704Z,20.70
2022-08-25T11:16:44.554Z,20.60
2022-08-25T11:19:26.982Z,20.60
2022-08-25T11:22:07.727Z,20.60
2022-08-25T11:25:12.259Z,20.60
2022-08-25T11:28:04.891Z,20.60
2022-08-25T11:30:33.366Z,20.60
2022-08-25T11:33:01.659Z,20.60
2022-08-25T11:35:43.572Z,20.60
2022-08-25T11:38:35.215Z,20.60
2022-08-25T11:41:20.465Z,20.60
2022-08-25T11:44:13.037Z,20.60
2022-08-25T11:46:49.544Z,20.60
2022-08-25T11:49:43.477Z,20.70
2022-08-25T11:52:34.718Z,20.80
2022-08-25T11:55:17.962Z,20.90
2022-08-25T11:58:12.916Z,21.10
2022-08-25T12:00:45.012Z,21.30
2022-08-25T12:03:34.834Z,21.40
2022-08-25T12:06:18.446Z,21.50
2022-08-25T12:09:05.286Z,21.50
2022-08-25T12:11:52.815Z,21.60
2022-08-25T12:14:28.080Z,21.60
2022-08-25T12:16:56.543Z,21.60
2022-08-25T12:19:36.483Z,21.60
2022-08-25T12:22:08.944Z,21.60
2022-08-25T12:24:47.597Z,21.70
2022-08-25T12:27:44.305Z,21.80
2022-08-25T12:30:50.593Z,22.00
2022-08-25T12:33:22.251Z,22.20
2022-08-25T12:36:01.967Z,22.40
2022-08-25T12:38:30.012Z,22.60
2022-08-25T12:41:12.682Z,22.80
2022-08-25T12:43:44.155Z,22.90
2022-08-25T12:46:23.964Z,23.00
2022-08-25T12:49:03.416Z,23.00
2022-08-25T12:51:41.177Z,22.90
2022-08-25T12:54:19.009Z,22.80
2022-08-25T12:56:58.115Z,22.80
2022-08-25T12:59:38.029Z,22.80
2022-08-25T13:02:40.001Z,22.90
2022-08-25T13:05:27.152Z,23.00
2022-08-25T13:08:15.380Z,23.10
2022-08-25T13:10:56.326Z,23.10
2022-08-25T13:14:17.945Z,23.10
2022-08-25T13:16:58.343Z,23.00
2022-08-25T13:19:34.629Z,23.00
2022-08-25T13:22:16.200Z,22.90
2022-08-25T13:24:47.500Z,22.80
2022-08-25T13:27:26.545Z,22.80
2022-08-25T13:30:03.551Z,22.80
2022-08-25T13:32:36.681Z,22.90
2022-08-25T13:35:30.316Z,23.10
2022-08-25T13:38:19.558Z,23.30
2022-08-25T13:40:48.283Z,23.50
2022-08-25T13:43:17.750Z,23.60
2022-08-25T13:45:56.797Z,23.70
2022-08-25T13:49:02.895Z,23.80
2022-08-25T13:51:31.904Z,23.90
2022-08-25T13:55:27.773Z,24.00
2022-08-25T13:58:01.688Z,24.00
2022-08-25T14:00:38.578Z,24.00
2022-08-25T14:03:12.873Z,24.10
2022-08-25T14:05:45.645Z,24.30
2022-08-25T14:08:35.540Z,24.50
2022-08-25T14:11:15.174Z,24.70
2022-08-25T14:13:45.288Z,24.80
2022-08-25T14:16:19.780Z,24.80
2022-08-25T14:18:52.272Z,24.70
2022-08-25T14:21:29.765Z,24.70
2022-08-25T14:23:58.483Z,24.60
2022-08-25T14:26:27.804Z,24.40
2022-08-25T14:28:56.191Z,24.30
2022-08-25T14:31:32.282Z,24.30
2022-08-25T14:34:09.442Z,24.30
2022-08-25T14:36:41.104Z,24.20
2022-08-25T14:39:10.984Z,24.10
2022-08-25T14:41:41.215Z,24.00
2022-08-25T14:44:11.186Z,24.00
2022-08-25T14:46:50.634Z,23.80
2022-08-25T14:49:24.872Z,23.80
2022-08-25T14:51:53.481Z,23.70
2022-08-25T14:54:26.542Z,23.60
2022-08-25T14:56:55.956Z,23.60
2022-08-25T14:59:24.072Z,23.70
2022-08-25T15:01:52.383Z,23.80
2022-08-25T15:04:24.677Z,24.00
2022-08-25T15:06:59.397Z,24.10
2022-08-25T15:09:33.772Z,24.20
2022-08-25T15:12:04.309Z,24.20
2022-08-25T15:14:33.501Z,24.20
2022-08-25T15:17:03.499Z,24.20
2022-08-25T15:19:31.851Z,24.10
2022-08-25T15:21:59.895Z,24.00
2022-08-25T15:24:33.938Z,23.90
2022-08-25T15:27:07.383Z,23.80
2022-08-25T15:29:38.675Z,23.80
2022-08-25T15:32:08.991Z,23.60
2022-08-25T15:34:38.021Z,23.50
2022-08-25T15:37:12.498Z,23.40
2022-08-25T15:39:42.600Z,23.40
2022-08-25T15:42:12.804Z,23.30
2022-08-25T15:44:42.439Z,23.30
2022-08-25T15:47:22.826Z,23.20
2022-08-25T15:50:02.698Z,23.20
2022-08-25T15:52:44.422Z,23.10
2022-08-25T15:55:16.452Z,23.10
2022-08-25T15:57:44.380Z,23.00
2022-08-25T16:00:13.709Z,23.00
2022-08-25T16:02:46.276Z,23.00
2022-08-25T16:05:16.649Z,22.90
2022-08-25T16:07:46.215Z,22.80
2022-08-25T16:10:20.528Z,22.80
2022-08-25T16:12:50.561Z,22.70
2022-08-25T16:15:23.971Z,22.70
2022-08-25T16:18:00.409Z,22.70
2022-08-25T16:20:29.783Z,22.70
2022-08-25T16:23:00.584Z,22.60
2022-08-25T16:25:28.915Z,22.60
2022-08-25T16:27:56.949Z,22.60
2022-08-25T16:30:25.519Z,22.50
2022-08-25T16:32:54.168Z,22.50
2022-08-25T16:35:22.757Z,22.50
2022-08-25T16:37:51.208Z,22.40
2022-08-25T16:40:22.786Z,22.40
2022-08-25T16:42:51.005Z,22.40
2022-08-25T16:45:19.933Z,22.40
2022-08-25T16:47:49.740Z,22.40
2022-08-25T16:50:18.100Z,22.30
2022-08-25T16:53:08.053Z,22.30
2022-08-25T16:55:39.461Z,22.10
2022-08-25T16:58:13.498Z,22.10
2022-08-25T17:00:44.673Z,22.00
2022-08-25T17:03:13.612Z,22.00
2022-08-25T17:05:43.407Z,21.90
2022-08-25T17:08:32.982Z,21.90
2022-08-25T17:11:19.154Z,21.80
2022-08-25T17:13:54.087Z,21.80
2022-08-25T17:16:27.983Z,21.70
2022-08-25T17:19:01.072Z,21.70
2022-08-25T17:21:33.913Z,21.70
2022-08-25T17:24:03.000Z,21.70
2022-08-25T17:26:33.167Z,21.60
2022-08-25T17:29:01.657Z,21.60
2022-08-25T17:31:30.854Z,21.60
2022-08-25T17:34:00.437Z,21.60
2022-08-25T17:36:28.653Z,21.60
2022-08-25T17:38:58.129Z,21.70
2022-08-25T17:41:28.320Z,21.70
2022-08-25T17:43:56.172Z,21.80
2022-08-25T17:46:24.611Z,21.80
2022-08-25T17:48:53.216Z,21.80
2022-08-25T17:51:22.986Z,21.70
2022-08-25T17:53:52.776Z,21.70
2022-08-25T17:56:23.392Z,21.60
2022-08-25T17:58:55.358Z,21.50
2022-08-25T18:01:40.686Z,21.40
2022-08-25T18:04:17.461Z,21.30
2022-08-25T18:06:48.628Z,21.30
2022-08-25T18:09:17.646Z,21.20
2022-08-25T18:11:46.477Z,21.20
2022-08-25T18:14:16.618Z,21.20
2022-08-25T18:16:45.980Z,21.10
2022-08-25T18:19:15.663Z,21.00
2022-08-25T18:21:44.151Z,21.00
2022-08-25T18:24:13.489Z,20.90
2022-08-25T18:26:42.663Z,20.90
2022-08-25T18:29:13.242Z,20.80
2022-08-25T18:31:42.448Z,20.80
2022-08-25T18:34:11.593Z,20.70
2022-08-25T18:36:42.114Z,20.60
2022-08-25T18:39:34.150Z,20.60
2022-08-25T18:42:04.981Z,20.50
2022-08-25T18:44:33.516Z,20.50
2022-08-25T18:47:07.591Z,20.40
2022-08-25T18:49:37.630Z,20.40
2022-08-25T18:52:06.501Z,20.40
2022-08-25T18:54:36.086Z,20.30
2022-08-25T18:57:04.902Z,20.30
2022-08-25T18:59:37.242Z,20.20
2022-08-25T19:02:07.154Z,20.20
2022-08-25T19:04:34.967Z,20.10
2022-08-25T19:07:07.976Z,20.10
2022-08-25T19:09:36.643Z,20.10
2022-08-25T19:12:06.114Z,20.10
2022-08-25T19:14:40.300Z,20.10
2022-08-25T19:17:09.755Z,20.00
2022-08-25T19:19:38.104Z,20.00
2022-08-25T19:22:08.546Z,20.00
2022-08-25T19:24:45.738Z,20.00
2022-08-25T19:27:13.962Z,20.00
2022-08-25T19:29:41.940Z,19.90
2022-08-25T19:32:12.644Z,19.90
2022-08-25T19:34:42.829Z,19.90
2022-08-25T19:37:13.141Z,20.00
2022-08-25T19:39:43.656Z,19.90
2022-08-25T19:42:36.811Z,19.90
2022-08-25T19:47:22.982Z,19.90
2022-08-25T19:49:51.329Z,19.90
2022-08-25T19:52:24.951Z,19.90
2022-08-25T19:54:55.372Z,19.90
2022-08-25T19:57:28.367Z,19.90
2022-08-25T20:00:18.647Z,19.90
2022-08-25T20:02:48.007Z,19.90
2022-08-25T20:05:23.808Z,19.80
2022-08-25T20:07:54.269Z,19.90
2022-08-25T20:10:25.248Z,19.80
2022-08-25T20:12:54.940Z,19.80
2022-08-25T20:15:22.996Z,19.70
2022-08-25T20:17:51.510Z,19.80
2022-08-25T20:20:25.613Z,19.70
2022-08-25T20:23:20.983Z,19.70
2022-08-25T20:25:50.983Z,19.70
2022-08-25T20:28:19.210Z,19.70
2022-08-25T20:30:47.255Z,19.60
2022-08-25T20:33:22.932Z,19.70
2022-08-25T20:35:53.024Z,19.60
2022-08-25T20:38:22.344Z,19.60
2022-08-25T20:40:50.672Z,19.60
2022-08-25T20:43:18.945Z,19.60
2022-08-25T20:45:49.226Z,19.60
2022-08-25T20:48:17.684Z,19.60
2022-08-25T20:50:45.928Z,19.60
2022-08-25T20:53:26.267Z,19.50
2022-08-25T20:55:55.046Z,19.60
2022-08-25T20:58:23.612Z,19.50
2022-08-25T21:00:55.215Z,19.50
2022-08-25T21:03:24.177Z,19.40
2022-08-25T21:05:53.589Z,19.40
2022-08-25T21:08:23.742Z,19.30
2022-08-25T21:10:53.468Z,19.20
2022-08-25T21:13:21.384Z,19.20
2022-08-25T21:15:51.316Z,19.10
2022-08-25T21:18:21.578Z,19.10
2022-08-25T21:20:53.074Z,19.00
2022-08-25T21:23:21.630Z,19.00
2022-08-25T21:25:51.683Z,18.90
2022-08-25T21:28:20.316Z,18.90
2022-08-25T21:30:49.632Z,18.90
2022-08-25T21:33:18.404Z,18.80
2022-08-25T21:35:46.999Z,18.80
2022-08-25T21:38:14.998Z,18.80
2022-08-25T21:40:44.901Z,18.70
2022-08-25T21:43:13.064Z,18.70
2022-08-25T21:45:46.856Z,18.60
2022-08-25T21:48:15.746Z,18.60
2022-08-25T21:50:44.279Z,18.50
2022-08-25T21:53:13.127Z,18.50
2022-08-25T21:55:42.144Z,18.50
2022-08-25T21:58:10.250Z,18.40
2022-08-25T22:00:38.309Z,18.40
2022-08-25T22:03:07.661Z,18.40
2022-08-25T22:05:36.934Z,18.30
2022-08-25T22:08:05.317Z,18.30
2022-08-25T22:10:33.143Z,18.30
2022-08-25T22:13:02.418Z,18.20
2022-08-25T22:15:30.539Z,18.20
2022-08-25T22:17:58.765Z,18.20
2022-08-25T22:20:29.569Z,18.10
2022-08-25T22:22:57.580Z,18.10
2022-08-25T22:25:28.955Z,18.00
2022-08-25T22:28:00.895Z,18.00
2022-08-25T22:30:29.858Z,18.00
2022-08-25T22:32:59.894Z,18.00
2022-08-25T22:35:33.200Z,18.00
2022-08-25T22:38:02.565Z,17.90
2022-08-25T22:40:33.117Z,17.90
2022-08-25T22:43:01.524Z,17.80
2022-08-25T22:45:29.380Z,17.80
2022-08-25T22:47:57.694Z,17.80
2022-08-25T22:50:26.681Z,17.80
2022-08-25T22:52:56.459Z,17.70
2022-08-25T22:55:24.261Z,17.70
2022-08-25T22:57:56.476Z,17.70
2022-08-25T23:00:25.521Z,17.60
2022-08-25T23:02:53.999Z,17.60
2022-08-25T23:05:22.515Z,17.60
2022-08-25T23:07:54.638Z,17.50
2022-08-25T23:10:23.884Z,17.50
2022-08-25T23:12:53.301Z,17.50
2022-08-25T23:15:21.165Z,17.50
2022-08-25T23:17:50.068Z,17.50
2022-08-25T23:20:37.655Z,17.40
2022-08-25T23:23:14.219Z,17.40
2022-08-25T23:25:41.998Z,17.40
2022-08-25T23:28:10.469Z,17.40
2022-08-25T23:30:40.301Z,17.40
2022-08-25T23:33:15.259Z,17.30
2022-08-25T23:35:47.496Z,17.30
2022-08-25T23:38:16.235Z,17.30
2022-08-25T23:40:44.883Z,17.20
2022-08-25T23:43:14.109Z,17.20
2022-08-25T23:45:42.461Z,17.10
2022-08-25T23:48:11.144Z,17.10
2022-08-25T23:50:46.436Z,17.10
2022-08-25T23:53:20.591Z,17.00
2022-08-25T23:55:54.144Z,17.00
2022-08-25T23:58:22.423Z,16.90
